sensor_id;sensor_type;location;lat;lon;timestamp;P1;durP1;ratioP1;P2;durP2;ratioP2
58637;SDS011;54976;51.510;7.522;2023-06-14T00:02:33;7.57;;;4.57;;
58637;SDS011;54976;51.510;7.522;2023-06-14T00:05:34;7.65;;;5.05;;
58637;SDS011;54976;51.510;7.522;2023-06-14T00:11:40;15.68;;;5.38;;
58637;SDS011;54976;51.510;7.522;2023-06-14T00:14:41;7.82;;;5.20;;
58637;SDS011;54976;51.510;7.522;2023-06-14T00:17:42;10.27;;;5.60;;
58637;SDS011;54976;51.510;7.522;2023-06-14T00:20:47;9.75;;;5.82;;
58637;SDS011;54976;51.510;7.522;2023-06-14T00:23:48;10.07;;;5.18;;
58637;SDS011;54976;51.510;7.522;2023-06-14T00:26:48;7.97;;;4.90;;
58637;SDS011;54976;51.510;7.522;2023-06-14T00:29:49;6.50;;;5.10;;
58637;SDS011;54976;51.510;7.522;2023-06-14T00:32:49;12.27;;;5.13;;
58637;SDS011;54976;51.510;7.522;2023-06-14T00:35:51;12.20;;;5.30;;
58637;SDS011;54976;51.510;7.522;2023-06-14T00:38:53;8.07;;;4.80;;
58637;SDS011;54976;51.510;7.522;2023-06-14T00:41:54;6.25;;;4.90;;
58637;SDS011;54976;51.510;7.522;2023-06-14T00:44:55;6.95;;;5.00;;
58637;SDS011;54976;51.510;7.522;2023-06-14T00:47:55;11.52;;;5.20;;
58637;SDS011;54976;51.510;7.522;2023-06-14T00:50:56;12.98;;;5.30;;
58637;SDS011;54976;51.510;7.522;2023-06-14T00:53:57;7.57;;;4.70;;
58637;SDS011;54976;51.510;7.522;2023-06-14T00:56:58;12.32;;;5.13;;
58637;SDS011;54976;51.510;7.522;2023-06-14T00:59:59;10.75;;;4.72;;
58637;SDS011;54976;51.510;7.522;2023-06-14T01:02:59;6.68;;;4.93;;
58637;SDS011;54976;51.510;7.522;2023-06-14T01:06:44;8.18;;;5.35;;
58637;SDS011;54976;51.510;7.522;2023-06-14T01:09:35;7.55;;;4.90;;
58637;SDS011;54976;51.510;7.522;2023-06-14T01:13:01;11.15;;;5.32;;
58637;SDS011;54976;51.510;7.522;2023-06-14T01:16:07;11.10;;;5.80;;
58637;SDS011;54976;51.510;7.522;2023-06-14T01:19:09;9.30;;;5.22;;
58637;SDS011;54976;51.510;7.522;2023-06-14T01:22:14;9.63;;;5.22;;
58637;SDS011;54976;51.510;7.522;2023-06-14T01:25:14;11.68;;;5.35;;
58637;SDS011;54976;51.510;7.522;2023-06-14T01:28:16;8.38;;;5.30;;
58637;SDS011;54976;51.510;7.522;2023-06-14T01:31:19;11.45;;;5.32;;
58637;SDS011;54976;51.510;7.522;2023-06-14T01:34:24;10.80;;;4.80;;
58637;SDS011;54976;51.510;7.522;2023-06-14T01:37:25;7.25;;;4.85;;
58637;SDS011;54976;51.510;7.522;2023-06-14T01:40:26;9.68;;;5.10;;
58637;SDS011;54976;51.510;7.522;2023-06-14T01:43:29;7.03;;;4.80;;
58637;SDS011;54976;51.510;7.522;2023-06-14T01:46:30;10.98;;;5.25;;
58637;SDS011;54976;51.510;7.522;2023-06-14T01:49:33;7.50;;;5.28;;
58637;SDS011;54976;51.510;7.522;2023-06-14T01:52:36;7.45;;;4.90;;
58637;SDS011;54976;51.510;7.522;2023-06-14T01:55:37;7.95;;;4.72;;
58637;SDS011;54976;51.510;7.522;2023-06-14T01:58:38;8.10;;;4.90;;
58637;SDS011;54976;51.510;7.522;2023-06-14T02:01:39;7.38;;;5.55;;
58637;SDS011;54976;51.510;7.522;2023-06-14T02:04:40;6.28;;;4.65;;
58637;SDS011;54976;51.510;7.522;2023-06-14T02:07:41;11.52;;;5.20;;
58637;SDS011;54976;51.510;7.522;2023-06-14T02:10:42;5.72;;;5.18;;
58637;SDS011;54976;51.510;7.522;2023-06-14T02:13:43;8.63;;;5.00;;
58637;SDS011;54976;51.510;7.522;2023-06-14T02:16:44;12.13;;;5.22;;
58637;SDS011;54976;51.510;7.522;2023-06-14T02:19:48;11.82;;;4.80;;
58637;SDS011;54976;51.510;7.522;2023-06-14T02:22:50;7.70;;;4.80;;
58637;SDS011;54976;51.510;7.522;2023-06-14T02:25:51;13.77;;;6.40;;
58637;SDS011;54976;51.510;7.522;2023-06-14T02:28:51;8.82;;;5.22;;
58637;SDS011;54976;51.510;7.522;2023-06-14T02:31:52;8.32;;;4.78;;
58637;SDS011;54976;51.510;7.522;2023-06-14T02:34:53;11.13;;;5.15;;
58637;SDS011;54976;51.510;7.522;2023-06-14T02:37:54;12.50;;;6.05;;
58637;SDS011;54976;51.510;7.522;2023-06-14T02:40:55;10.23;;;4.70;;
58637;SDS011;54976;51.510;7.522;2023-06-14T02:43:55;11.75;;;5.65;;
58637;SDS011;54976;51.510;7.522;2023-06-14T02:46:58;6.30;;;4.38;;
58637;SDS011;54976;51.510;7.522;2023-06-14T02:50:00;7.00;;;4.32;;
58637;SDS011;54976;51.510;7.522;2023-06-14T02:53:02;5.90;;;4.38;;
58637;SDS011;54976;51.510;7.522;2023-06-14T02:56:03;8.85;;;3.83;;
58637;SDS011;54976;51.510;7.522;2023-06-14T02:59:04;9.35;;;4.38;;
58637;SDS011;54976;51.510;7.522;2023-06-14T03:02:05;8.75;;;4.45;;
58637;SDS011;54976;51.510;7.522;2023-06-14T03:05:05;9.80;;;4.10;;
58637;SDS011;54976;51.510;7.522;2023-06-14T03:08:07;14.05;;;4.45;;
58637;SDS011;54976;51.510;7.522;2023-06-14T03:11:08;9.20;;;4.18;;
58637;SDS011;54976;51.510;7.522;2023-06-14T03:14:09;11.73;;;4.65;;
58637;SDS011;54976;51.510;7.522;2023-06-14T03:17:11;8.25;;;4.43;;
58637;SDS011;54976;51.510;7.522;2023-06-14T03:20:11;6.55;;;3.80;;
58637;SDS011;54976;51.510;7.522;2023-06-14T03:23:12;7.75;;;3.85;;
58637;SDS011;54976;51.510;7.522;2023-06-14T03:26:13;7.60;;;4.00;;
58637;SDS011;54976;51.510;7.522;2023-06-14T03:29:14;9.05;;;3.90;;
58637;SDS011;54976;51.510;7.522;2023-06-14T03:32:16;8.15;;;3.85;;
58637;SDS011;54976;51.510;7.522;2023-06-14T03:35:16;5.35;;;3.83;;
58637;SDS011;54976;51.510;7.522;2023-06-14T03:38:17;5.72;;;3.45;;
58637;SDS011;54976;51.510;7.522;2023-06-14T03:41:18;9.98;;;3.72;;
58637;SDS011;54976;51.510;7.522;2023-06-14T03:44:19;12.07;;;4.07;;
58637;SDS011;54976;51.510;7.522;2023-06-14T03:47:19;9.07;;;3.45;;
58637;SDS011;54976;51.510;7.522;2023-06-14T03:50:20;7.85;;;3.47;;
58637;SDS011;54976;51.510;7.522;2023-06-14T03:53:20;8.43;;;3.67;;
58637;SDS011;54976;51.510;7.522;2023-06-14T03:56:23;5.47;;;3.95;;
58637;SDS011;54976;51.510;7.522;2023-06-14T03:59:24;7.03;;;3.60;;
58637;SDS011;54976;51.510;7.522;2023-06-14T04:02:25;7.72;;;3.30;;
58637;SDS011;54976;51.510;7.522;2023-06-14T04:05:28;5.97;;;3.80;;
58637;SDS011;54976;51.510;7.522;2023-06-14T04:08:29;9.73;;;3.97;;
58637;SDS011;54976;51.510;7.522;2023-06-14T04:11:30;7.38;;;3.53;;
58637;SDS011;54976;51.510;7.522;2023-06-14T04:14:31;7.97;;;4.10;;
58637;SDS011;54976;51.510;7.522;2023-06-14T04:17:32;9.80;;;4.05;;
58637;SDS011;54976;51.510;7.522;2023-06-14T04:20:34;11.68;;;4.90;;
58637;SDS011;54976;51.510;7.522;2023-06-14T04:23:34;8.60;;;4.18;;
58637;SDS011;54976;51.510;7.522;2023-06-14T04:26:35;13.23;;;4.10;;
58637;SDS011;54976;51.510;7.522;2023-06-14T04:29:36;8.25;;;4.30;;
58637;SDS011;54976;51.510;7.522;2023-06-14T04:32:37;7.00;;;3.97;;
58637;SDS011;54976;51.510;7.522;2023-06-14T04:35:38;6.50;;;3.42;;
58637;SDS011;54976;51.510;7.522;2023-06-14T04:38:40;8.50;;;4.20;;
58637;SDS011;54976;51.510;7.522;2023-06-14T04:41:42;9.57;;;3.90;;
58637;SDS011;54976;51.510;7.522;2023-06-14T04:44:44;19.58;;;4.07;;
58637;SDS011;54976;51.510;7.522;2023-06-14T04:47:44;19.40;;;4.35;;
58637;SDS011;54976;51.510;7.522;2023-06-14T04:50:46;10.25;;;4.10;;
58637;SDS011;54976;51.510;7.522;2023-06-14T04:53:46;11.98;;;4.13;;
58637;SDS011;54976;51.510;7.522;2023-06-14T04:56:49;8.38;;;3.90;;
58637;SDS011;54976;51.510;7.522;2023-06-14T04:59:50;10.82;;;4.03;;
58637;SDS011;54976;51.510;7.522;2023-06-14T05:05:56;7.25;;;3.40;;
58637;SDS011;54976;51.510;7.522;2023-06-14T05:08:58;5.80;;;3.80;;
58637;SDS011;54976;51.510;7.522;2023-06-14T05:11:58;10.88;;;3.75;;
58637;SDS011;54976;51.510;7.522;2023-06-14T05:15:00;7.30;;;3.15;;
58637;SDS011;54976;51.510;7.522;2023-06-14T05:18:00;9.75;;;3.70;;
58637;SDS011;54976;51.510;7.522;2023-06-14T05:21:02;15.82;;;3.78;;
58637;SDS011;54976;51.510;7.522;2023-06-14T05:24:04;7.68;;;3.30;;
58637;SDS011;54976;51.510;7.522;2023-06-14T05:27:05;7.35;;;3.08;;
58637;SDS011;54976;51.510;7.522;2023-06-14T05:30:07;6.50;;;3.35;;
58637;SDS011;54976;51.510;7.522;2023-06-14T05:33:08;9.07;;;2.92;;
58637;SDS011;54976;51.510;7.522;2023-06-14T05:36:08;10.90;;;3.80;;
58637;SDS011;54976;51.510;7.522;2023-06-14T05:39:09;14.45;;;3.30;;
58637;SDS011;54976;51.510;7.522;2023-06-14T05:42:10;8.10;;;3.17;;
58637;SDS011;54976;51.510;7.522;2023-06-14T05:45:11;10.20;;;3.50;;
58637;SDS011;54976;51.510;7.522;2023-06-14T05:48:11;15.43;;;3.60;;
58637;SDS011;54976;51.510;7.522;2023-06-14T05:51:12;25.35;;;10.32;;
58637;SDS011;54976;51.510;7.522;2023-06-14T05:54:12;6.00;;;3.30;;
58637;SDS011;54976;51.510;7.522;2023-06-14T05:57:13;15.32;;;3.75;;
58637;SDS011;54976;51.510;7.522;2023-06-14T06:00:14;5.85;;;2.97;;
58637;SDS011;54976;51.510;7.522;2023-06-14T06:03:15;7.05;;;2.90;;
58637;SDS011;54976;51.510;7.522;2023-06-14T06:06:16;8.23;;;3.20;;
58637;SDS011;54976;51.510;7.522;2023-06-14T06:09:17;8.63;;;2.80;;
58637;SDS011;54976;51.510;7.522;2023-06-14T06:12:17;15.98;;;2.72;;
58637;SDS011;54976;51.510;7.522;2023-06-14T06:15:18;11.25;;;3.10;;
58637;SDS011;54976;51.510;7.522;2023-06-14T06:18:18;15.45;;;3.08;;
58637;SDS011;54976;51.510;7.522;2023-06-14T06:21:19;10.32;;;2.72;;
58637;SDS011;54976;51.510;7.522;2023-06-14T06:24:20;6.20;;;2.70;;
58637;SDS011;54976;51.510;7.522;2023-06-14T06:27:20;4.60;;;2.22;;
58637;SDS011;54976;51.510;7.522;2023-06-14T06:30:21;7.18;;;2.67;;
58637;SDS011;54976;51.510;7.522;2023-06-14T06:33:22;5.88;;;2.58;;
58637;SDS011;54976;51.510;7.522;2023-06-14T06:36:23;6.30;;;2.53;;
58637;SDS011;54976;51.510;7.522;2023-06-14T06:39:24;5.10;;;2.35;;
58637;SDS011;54976;51.510;7.522;2023-06-14T06:42:26;7.47;;;2.45;;
58637;SDS011;54976;51.510;7.522;2023-06-14T06:45:26;6.53;;;2.78;;
58637;SDS011;54976;51.510;7.522;2023-06-14T06:48:27;6.82;;;2.25;;
58637;SDS011;54976;51.510;7.522;2023-06-14T06:51:28;6.03;;;2.33;;
58637;SDS011;54976;51.510;7.522;2023-06-14T06:54:29;10.60;;;2.33;;
58637;SDS011;54976;51.510;7.522;2023-06-14T06:57:29;8.05;;;1.90;;
58637;SDS011;54976;51.510;7.522;2023-06-14T07:00:30;7.88;;;2.17;;
58637;SDS011;54976;51.510;7.522;2023-06-14T07:03:30;6.05;;;2.17;;
58637;SDS011;54976;51.510;7.522;2023-06-14T07:06:31;4.63;;;1.77;;
58637;SDS011;54976;51.510;7.522;2023-06-14T07:09:32;4.10;;;2.15;;
58637;SDS011;54976;51.510;7.522;2023-06-14T07:12:33;6.40;;;1.80;;
58637;SDS011;54976;51.510;7.522;2023-06-14T07:15:39;3.20;;;1.95;;
58637;SDS011;54976;51.510;7.522;2023-06-14T07:18:39;6.28;;;2.00;;
58637;SDS011;54976;51.510;7.522;2023-06-14T07:21:40;6.88;;;1.70;;
58637;SDS011;54976;51.510;7.522;2023-06-14T07:24:40;7.30;;;1.83;;
58637;SDS011;54976;51.510;7.522;2023-06-14T07:27:42;9.73;;;1.50;;
58637;SDS011;54976;51.510;7.522;2023-06-14T07:30:43;4.68;;;1.50;;
58637;SDS011;54976;51.510;7.522;2023-06-14T07:33:44;5.20;;;1.55;;
58637;SDS011;54976;51.510;7.522;2023-06-14T07:36:45;5.65;;;1.88;;
58637;SDS011;54976;51.510;7.522;2023-06-14T07:39:46;10.10;;;1.85;;
58637;SDS011;54976;51.510;7.522;2023-06-14T07:42:46;2.83;;;1.63;;
58637;SDS011;54976;51.510;7.522;2023-06-14T07:45:47;2.10;;;1.38;;
58637;SDS011;54976;51.510;7.522;2023-06-14T07:48:48;6.47;;;1.42;;
58637;SDS011;54976;51.510;7.522;2023-06-14T07:51:48;3.50;;;0.88;;
58637;SDS011;54976;51.510;7.522;2023-06-14T07:54:50;2.25;;;1.27;;
58637;SDS011;54976;51.510;7.522;2023-06-14T07:57:50;5.93;;;2.20;;
58637;SDS011;54976;51.510;7.522;2023-06-14T08:00:51;4.82;;;2.00;;
58637;SDS011;54976;51.510;7.522;2023-06-14T08:06:55;5.47;;;1.20;;
58637;SDS011;54976;51.510;7.522;2023-06-14T08:09:56;3.78;;;1.23;;
58637;SDS011;54976;51.510;7.522;2023-06-14T08:12:56;5.10;;;1.20;;
58637;SDS011;54976;51.510;7.522;2023-06-14T08:15:57;1.17;;;0.93;;
58637;SDS011;54976;51.510;7.522;2023-06-14T08:18:58;2.03;;;1.20;;
58637;SDS011;54976;51.510;7.522;2023-06-14T08:21:59;7.22;;;0.93;;
58637;SDS011;54976;51.510;7.522;2023-06-14T08:25:00;11.35;;;1.20;;
58637;SDS011;54976;51.510;7.522;2023-06-14T08:28:01;6.15;;;1.15;;
58637;SDS011;54976;51.510;7.522;2023-06-14T08:31:01;6.57;;;0.90;;
58637;SDS011;54976;51.510;7.522;2023-06-14T08:34:02;0.82;;;0.82;;
58637;SDS011;54976;51.510;7.522;2023-06-14T08:37:03;1.00;;;0.80;;
58637;SDS011;54976;51.510;7.522;2023-06-14T08:40:06;4.05;;;0.85;;
58637;SDS011;54976;51.510;7.522;2023-06-14T08:43:20;3.10;;;0.90;;
58637;SDS011;54976;51.510;7.522;2023-06-14T08:46:21;2.97;;;0.90;;
58637;SDS011;54976;51.510;7.522;2023-06-14T08:49:25;0.82;;;0.70;;
58637;SDS011;54976;51.510;7.522;2023-06-14T08:52:26;3.22;;;0.70;;
58637;SDS011;54976;51.510;7.522;2023-06-14T08:55:33;2.75;;;0.55;;
58637;SDS011;54976;51.510;7.522;2023-06-14T08:58:34;2.15;;;0.50;;
58637;SDS011;54976;51.510;7.522;2023-06-14T09:01:36;3.33;;;0.55;;
58637;SDS011;54976;51.510;7.522;2023-06-14T09:04:37;2.20;;;0.52;;
58637;SDS011;54976;51.510;7.522;2023-06-14T09:07:39;1.02;;;0.70;;
58637;SDS011;54976;51.510;7.522;2023-06-14T09:10:42;3.97;;;0.63;;
58637;SDS011;54976;51.510;7.522;2023-06-14T09:13:42;5.93;;;0.70;;
58637;SDS011;54976;51.510;7.522;2023-06-14T09:16:43;3.58;;;0.90;;
58637;SDS011;54976;51.510;7.522;2023-06-14T09:19:45;4.80;;;1.10;;
58637;SDS011;54976;51.510;7.522;2023-06-14T09:22:45;2.53;;;0.80;;
58637;SDS011;54976;51.510;7.522;2023-06-14T09:25:46;6.85;;;0.90;;
58637;SDS011;54976;51.510;7.522;2023-06-14T09:28:47;10.63;;;1.00;;
58637;SDS011;54976;51.510;7.522;2023-06-14T09:31:50;0.97;;;0.70;;
58637;SDS011;54976;51.510;7.522;2023-06-14T09:34:51;3.78;;;0.93;;
58637;SDS011;54976;51.510;7.522;2023-06-14T09:37:52;9.68;;;1.15;;
58637;SDS011;54976;51.510;7.522;2023-06-14T09:40:58;2.67;;;0.73;;
58637;SDS011;54976;51.510;7.522;2023-06-14T09:43:59;3.88;;;0.90;;
58637;SDS011;54976;51.510;7.522;2023-06-14T09:47:02;2.13;;;1.00;;
58637;SDS011;54976;51.510;7.522;2023-06-14T09:50:03;4.80;;;0.90;;
58637;SDS011;54976;51.510;7.522;2023-06-14T09:53:07;5.63;;;0.82;;
58637;SDS011;54976;51.510;7.522;2023-06-14T09:56:11;2.08;;;0.63;;
58637;SDS011;54976;51.510;7.522;2023-06-14T09:59:13;4.10;;;0.80;;
58637;SDS011;54976;51.510;7.522;2023-06-14T10:02:24;4.70;;;1.00;;
58637;SDS011;54976;51.510;7.522;2023-06-14T10:05:26;5.53;;;0.90;;
58637;SDS011;54976;51.510;7.522;2023-06-14T10:08:30;2.10;;;0.80;;
58637;SDS011;54976;51.510;7.522;2023-06-14T10:11:33;2.47;;;0.80;;
58637;SDS011;54976;51.510;7.522;2023-06-14T10:14:35;2.25;;;0.70;;
58637;SDS011;54976;51.510;7.522;2023-06-14T10:18:19;2.47;;;1.02;;
58637;SDS011;54976;51.510;7.522;2023-06-14T10:21:04;2.42;;;0.60;;
58637;SDS011;54976;51.510;7.522;2023-06-14T10:24:13;4.13;;;0.93;;
58637;SDS011;54976;51.510;7.522;2023-06-14T10:27:18;3.72;;;1.10;;
58637;SDS011;54976;51.510;7.522;2023-06-14T10:30:25;1.92;;;0.88;;
58637;SDS011;54976;51.510;7.522;2023-06-14T10:33:26;0.73;;;0.60;;
58637;SDS011;54976;51.510;7.522;2023-06-14T10:39:38;3.72;;;0.88;;
58637;SDS011;54976;51.510;7.522;2023-06-14T10:42:40;11.90;;;0.82;;
58637;SDS011;54976;51.510;7.522;2023-06-14T10:46:24;4.68;;;1.17;;
58637;SDS011;54976;51.510;7.522;2023-06-14T10:49:41;2.20;;;1.08;;
58637;SDS011;54976;51.510;7.522;2023-06-14T10:52:43;2.90;;;1.00;;
58637;SDS011;54976;51.510;7.522;2023-06-14T10:55:43;3.50;;;1.10;;
58637;SDS011;54976;51.510;7.522;2023-06-14T10:58:44;5.15;;;1.33;;
58637;SDS011;54976;51.510;7.522;2023-06-14T11:05:14;6.85;;;1.45;;
58637;SDS011;54976;51.510;7.522;2023-06-14T11:11:16;7.47;;;1.60;;
58637;SDS011;54976;51.510;7.522;2023-06-14T11:14:18;4.32;;;1.50;;
58637;SDS011;54976;51.510;7.522;2023-06-14T11:17:19;7.40;;;1.83;;
58637;SDS011;54976;51.510;7.522;2023-06-14T11:20:20;4.43;;;1.55;;
58637;SDS011;54976;51.510;7.522;2023-06-14T11:23:24;14.15;;;1.50;;
58637;SDS011;54976;51.510;7.522;2023-06-14T11:26:25;16.30;;;1.63;;
58637;SDS011;54976;51.510;7.522;2023-06-14T11:29:28;2.63;;;1.55;;
58637;SDS011;54976;51.510;7.522;2023-06-14T11:32:31;7.03;;;2.05;;
58637;SDS011;54976;51.510;7.522;2023-06-14T11:35:31;4.07;;;1.77;;
58637;SDS011;54976;51.510;7.522;2023-06-14T11:38:36;10.90;;;1.50;;
58637;SDS011;54976;51.510;7.522;2023-06-14T11:41:41;2.28;;;1.20;;
58637;SDS011;54976;51.510;7.522;2023-06-14T11:44:45;1.92;;;1.25;;
58637;SDS011;54976;51.510;7.522;2023-06-14T11:47:46;8.90;;;1.20;;
58637;SDS011;54976;51.510;7.522;2023-06-14T11:50:49;2.38;;;1.00;;
58637;SDS011;54976;51.510;7.522;2023-06-14T11:53:50;5.20;;;1.33;;
58637;SDS011;54976;51.510;7.522;2023-06-14T11:56:51;5.03;;;1.13;;
58637;SDS011;54976;51.510;7.522;2023-06-14T11:59:51;3.85;;;1.27;;
58637;SDS011;54976;51.510;7.522;2023-06-14T12:02:55;4.20;;;1.10;;
58637;SDS011;54976;51.510;7.522;2023-06-14T12:06:06;1.92;;;1.20;;
58637;SDS011;54976;51.510;7.522;2023-06-14T12:09:08;2.03;;;1.05;;
58637;SDS011;54976;51.510;7.522;2023-06-14T12:12:13;8.20;;;1.17;;
58637;SDS011;54976;51.510;7.522;2023-06-14T12:15:13;7.72;;;1.42;;
58637;SDS011;54976;51.510;7.522;2023-06-14T12:18:14;3.55;;;1.02;;
58637;SDS011;54976;51.510;7.522;2023-06-14T12:21:15;3.30;;;1.10;;
58637;SDS011;54976;51.510;7.522;2023-06-14T12:24:16;8.52;;;1.20;;
58637;SDS011;54976;51.510;7.522;2023-06-14T12:27:17;5.25;;;1.10;;
58637;SDS011;54976;51.510;7.522;2023-06-14T12:30:23;2.42;;;1.02;;
58637;SDS011;54976;51.510;7.522;2023-06-14T12:33:24;1.20;;;0.88;;
58637;SDS011;54976;51.510;7.522;2023-06-14T12:36:25;2.92;;;0.82;;
58637;SDS011;54976;51.510;7.522;2023-06-14T12:39:26;1.08;;;1.00;;
58637;SDS011;54976;51.510;7.522;2023-06-14T12:42:26;3.28;;;0.90;;
58637;SDS011;54976;51.510;7.522;2023-06-14T12:45:27;4.32;;;1.20;;
58637;SDS011;54976;51.510;7.522;2023-06-14T12:48:28;1.77;;;0.98;;
58637;SDS011;54976;51.510;7.522;2023-06-14T12:51:31;3.08;;;0.98;;
58637;SDS011;54976;51.510;7.522;2023-06-14T12:54:31;5.35;;;0.98;;
58637;SDS011;54976;51.510;7.522;2023-06-14T12:57:32;1.70;;;1.00;;
58637;SDS011;54976;51.510;7.522;2023-06-14T13:00:32;2.17;;;1.10;;
58637;SDS011;54976;51.510;7.522;2023-06-14T13:03:33;2.67;;;1.17;;
58637;SDS011;54976;51.510;7.522;2023-06-14T13:06:34;1.48;;;0.90;;
58637;SDS011;54976;51.510;7.522;2023-06-14T13:09:34;3.28;;;1.10;;
58637;SDS011;54976;51.510;7.522;2023-06-14T13:12:35;3.55;;;1.10;;
58637;SDS011;54976;51.510;7.522;2023-06-14T13:15:36;1.65;;;1.13;;
58637;SDS011;54976;51.510;7.522;2023-06-14T13:18:38;2.97;;;1.20;;
58637;SDS011;54976;51.510;7.522;2023-06-14T13:21:38;2.60;;;1.13;;
58637;SDS011;54976;51.510;7.522;2023-06-14T13:24:39;4.78;;;1.17;;
58637;SDS011;54976;51.510;7.522;2023-06-14T13:27:39;3.15;;;1.02;;
58637;SDS011;54976;51.510;7.522;2023-06-14T13:30:40;3.78;;;1.10;;
58637;SDS011;54976;51.510;7.522;2023-06-14T13:33:41;6.40;;;0.90;;
58637;SDS011;54976;51.510;7.522;2023-06-14T13:36:42;4.35;;;1.00;;
58637;SDS011;54976;51.510;7.522;2023-06-14T13:39:42;3.70;;;1.02;;
58637;SDS011;54976;51.510;7.522;2023-06-14T13:42:43;7.68;;;1.30;;
58637;SDS011;54976;51.510;7.522;2023-06-14T13:45:44;2.72;;;1.40;;
58637;SDS011;54976;51.510;7.522;2023-06-14T13:48:44;4.15;;;1.27;;
58637;SDS011;54976;51.510;7.522;2023-06-14T13:51:47;7.38;;;1.27;;
58637;SDS011;54976;51.510;7.522;2023-06-14T13:54:48;6.03;;;1.48;;
58637;SDS011;54976;51.510;7.522;2023-06-14T13:57:48;5.45;;;1.25;;
58637;SDS011;54976;51.510;7.522;2023-06-14T14:00:49;3.00;;;1.08;;
58637;SDS011;54976;51.510;7.522;2023-06-14T14:03:50;1.83;;;1.05;;
58637;SDS011;54976;51.510;7.522;2023-06-14T14:06:50;2.22;;;1.10;;
58637;SDS011;54976;51.510;7.522;2023-06-14T14:09:51;2.03;;;1.30;;
58637;SDS011;54976;51.510;7.522;2023-06-14T14:12:53;2.08;;;1.23;;
58637;SDS011;54976;51.510;7.522;2023-06-14T14:15:54;5.88;;;1.60;;
58637;SDS011;54976;51.510;7.522;2023-06-14T14:18:55;6.80;;;1.30;;
58637;SDS011;54976;51.510;7.522;2023-06-14T14:21:56;2.50;;;1.20;;
58637;SDS011;54976;51.510;7.522;2023-06-14T14:24:56;1.98;;;1.23;;
58637;SDS011;54976;51.510;7.522;2023-06-14T14:27:57;6.10;;;1.52;;
58637;SDS011;54976;51.510;7.522;2023-06-14T14:30:57;3.47;;;1.10;;
58637;SDS011;54976;51.510;7.522;2023-06-14T14:33:58;2.72;;;1.23;;
58637;SDS011;54976;51.510;7.522;2023-06-14T14:36:59;3.03;;;1.42;;
58637;SDS011;54976;51.510;7.522;2023-06-14T14:39:59;6.90;;;1.20;;
58637;SDS011;54976;51.510;7.522;2023-06-14T14:43:00;1.25;;;1.05;;
58637;SDS011;54976;51.510;7.522;2023-06-14T14:46:01;5.63;;;1.23;;
58637;SDS011;54976;51.510;7.522;2023-06-14T14:49:01;1.55;;;1.00;;
58637;SDS011;54976;51.510;7.522;2023-06-14T14:52:02;1.33;;;0.90;;
58637;SDS011;54976;51.510;7.522;2023-06-14T14:55:03;4.72;;;1.23;;
58637;SDS011;54976;51.510;7.522;2023-06-14T14:58:04;4.32;;;1.13;;
58637;SDS011;54976;51.510;7.522;2023-06-14T15:01:06;7.05;;;1.50;;
58637;SDS011;54976;51.510;7.522;2023-06-14T15:04:07;7.15;;;1.33;;
58637;SDS011;54976;51.510;7.522;2023-06-14T15:07:07;2.22;;;1.45;;
58637;SDS011;54976;51.510;7.522;2023-06-14T15:10:08;6.35;;;1.20;;
58637;SDS011;54976;51.510;7.522;2023-06-14T15:13:09;3.85;;;1.30;;
58637;SDS011;54976;51.510;7.522;2023-06-14T15:16:10;3.05;;;1.33;;
58637;SDS011;54976;51.510;7.522;2023-06-14T15:19:11;3.67;;;1.10;;
58637;SDS011;54976;51.510;7.522;2023-06-14T15:22:11;3.13;;;1.23;;
58637;SDS011;54976;51.510;7.522;2023-06-14T15:25:12;6.07;;;1.13;;
58637;SDS011;54976;51.510;7.522;2023-06-14T15:28:13;3.90;;;1.38;;
58637;SDS011;54976;51.510;7.522;2023-06-14T15:31:14;1.98;;;1.10;;
58637;SDS011;54976;51.510;7.522;2023-06-14T15:34:15;7.05;;;1.13;;
58637;SDS011;54976;51.510;7.522;2023-06-14T15:37:15;3.75;;;1.20;;
58637;SDS011;54976;51.510;7.522;2023-06-14T15:40:16;3.38;;;1.35;;
58637;SDS011;54976;51.510;7.522;2023-06-14T15:43:17;3.75;;;1.25;;
58637;SDS011;54976;51.510;7.522;2023-06-14T15:46:19;2.75;;;1.20;;
58637;SDS011;54976;51.510;7.522;2023-06-14T15:49:21;6.57;;;1.63;;
58637;SDS011;54976;51.510;7.522;2023-06-14T15:52:22;2.35;;;1.20;;
58637;SDS011;54976;51.510;7.522;2023-06-14T15:55:22;1.50;;;1.20;;
58637;SDS011;54976;51.510;7.522;2023-06-14T15:58:23;2.67;;;0.93;;
58637;SDS011;54976;51.510;7.522;2023-06-14T16:01:24;1.85;;;1.10;;
58637;SDS011;54976;51.510;7.522;2023-06-14T16:04:24;1.80;;;1.20;;
58637;SDS011;54976;51.510;7.522;2023-06-14T16:07:25;1.15;;;1.02;;
58637;SDS011;54976;51.510;7.522;2023-06-14T16:10:25;3.75;;;1.30;;
58637;SDS011;54976;51.510;7.522;2023-06-14T16:13:26;4.05;;;1.30;;
58637;SDS011;54976;51.510;7.522;2023-06-14T16:16:27;3.35;;;1.50;;
58637;SDS011;54976;51.510;7.522;2023-06-14T16:19:28;1.83;;;1.23;;
58637;SDS011;54976;51.510;7.522;2023-06-14T16:22:28;5.95;;;1.27;;
58637;SDS011;54976;51.510;7.522;2023-06-14T16:25:29;3.45;;;1.23;;
58637;SDS011;54976;51.510;7.522;2023-06-14T16:28:30;2.45;;;1.30;;
58637;SDS011;54976;51.510;7.522;2023-06-14T16:31:31;3.08;;;1.60;;
58637;SDS011;54976;51.510;7.522;2023-06-14T16:34:32;1.38;;;1.10;;
58637;SDS011;54976;51.510;7.522;2023-06-14T16:37:34;2.38;;;1.50;;
58637;SDS011;54976;51.510;7.522;2023-06-14T16:40:35;6.88;;;1.77;;
58637;SDS011;54976;51.510;7.522;2023-06-14T16:43:36;4.82;;;2.70;;
58637;SDS011;54976;51.510;7.522;2023-06-14T16:46:37;3.95;;;2.35;;
58637;SDS011;54976;51.510;7.522;2023-06-14T16:49:37;3.08;;;2.10;;
58637;SDS011;54976;51.510;7.522;2023-06-14T16:52:38;1.75;;;1.10;;
58637;SDS011;54976;51.510;7.522;2023-06-14T16:55:38;1.65;;;1.30;;
58637;SDS011;54976;51.510;7.522;2023-06-14T16:58:39;2.15;;;1.30;;
58637;SDS011;54976;51.510;7.522;2023-06-14T17:01:39;4.85;;;1.30;;
58637;SDS011;54976;51.510;7.522;2023-06-14T17:04:40;3.30;;;1.20;;
58637;SDS011;54976;51.510;7.522;2023-06-14T17:07:41;2.03;;;1.30;;
58637;SDS011;54976;51.510;7.522;2023-06-14T17:10:41;4.53;;;1.23;;
58637;SDS011;54976;51.510;7.522;2023-06-14T17:13:42;2.45;;;1.23;;
58637;SDS011;54976;51.510;7.522;2023-06-14T17:16:42;3.92;;;1.27;;
58637;SDS011;54976;51.510;7.522;2023-06-14T17:19:43;3.40;;;1.20;;
58637;SDS011;54976;51.510;7.522;2023-06-14T17:22:44;1.85;;;1.13;;
58637;SDS011;54976;51.510;7.522;2023-06-14T17:25:44;5.50;;;1.40;;
58637;SDS011;54976;51.510;7.522;2023-06-14T17:28:45;3.22;;;1.33;;
58637;SDS011;54976;51.510;7.522;2023-06-14T17:31:45;5.18;;;1.20;;
58637;SDS011;54976;51.510;7.522;2023-06-14T17:34:46;2.17;;;0.95;;
58637;SDS011;54976;51.510;7.522;2023-06-14T17:37:46;3.53;;;1.08;;
58637;SDS011;54976;51.510;7.522;2023-06-14T17:40:47;3.13;;;1.08;;
58637;SDS011;54976;51.510;7.522;2023-06-14T17:43:48;2.15;;;0.90;;
58637;SDS011;54976;51.510;7.522;2023-06-14T17:46:48;1.10;;;0.98;;
58637;SDS011;54976;51.510;7.522;2023-06-14T17:49:49;3.28;;;1.10;;
58637;SDS011;54976;51.510;7.522;2023-06-14T17:52:52;5.70;;;1.52;;
58637;SDS011;54976;51.510;7.522;2023-06-14T17:55:52;7.30;;;1.40;;
58637;SDS011;54976;51.510;7.522;2023-06-14T17:58:53;6.90;;;1.40;;
58637;SDS011;54976;51.510;7.522;2023-06-14T18:01:55;10.20;;;1.50;;
58637;SDS011;54976;51.510;7.522;2023-06-14T18:04:56;3.88;;;1.48;;
58637;SDS011;54976;51.510;7.522;2023-06-14T18:07:56;5.88;;;1.27;;
58637;SDS011;54976;51.510;7.522;2023-06-14T18:10:57;2.65;;;1.10;;
58637;SDS011;54976;51.510;7.522;2023-06-14T18:13:58;1.50;;;1.10;;
58637;SDS011;54976;51.510;7.522;2023-06-14T18:16:58;5.50;;;1.20;;
58637;SDS011;54976;51.510;7.522;2023-06-14T18:19:59;1.52;;;1.27;;
58637;SDS011;54976;51.510;7.522;2023-06-14T18:23:00;2.38;;;0.98;;
58637;SDS011;54976;51.510;7.522;2023-06-14T18:26:01;2.33;;;0.80;;
58637;SDS011;54976;51.510;7.522;2023-06-14T18:29:02;3.47;;;1.15;;
58637;SDS011;54976;51.510;7.522;2023-06-14T18:32:03;6.07;;;1.30;;